Time;durP1;ratioP1;P1;durP2;ratioP2;P2;SDS_P1;SDS_P2;PMS_P1;PMS_P2;Temp;Humidity;BMP_temperature;BMP_pressure;BME280_temperature;BME280_humidity;BME280_pressure;Samples;Min_cycle;Max_cycle;Signal;HPM_P1;HPM_P2
2023/06/05 00:02:42;;;;;;;6.00;2.30;;;;;;;-144.73;35.93;84935.98;110549;1256;22836;-63
2023/06/05 00:05:29;;;;;;;5.60;2.30;;;;;;;-144.73;36.09;84930.85;110299;1278;22211;-61
2023/06/05 00:08:15;;;;;;;7.80;2.60;;;;;;;-144.73;36.16;84948.64;110311;1278;22210;-62
2023/06/05 00:11:01;;;;;;;8.50;2.80;;;;;;;-144.73;36.34;84943.89;110324;1278;22168;-62
2023/06/05 00:13:47;;;;;;;5.70;2.50;;;;;;;-144.73;36.12;84933.23;110292;1278;22205;-62
2023/06/05 00:16:37;;;;;;;6.10;2.20;;;;;;;-144.73;35.85;84950.21;110300;1278;22798;-62
2023/06/05 00:19:24;;;;;;;3.50;1.60;;;;;;;-144.73;35.77;84945.48;110295;1278;22387;-60
2023/06/05 00:22:11;;;;;;;4.20;2.30;;;;;;;-144.73;35.95;84954.97;110351;1278;22100;-61
2023/06/05 00:24:57;;;;;;;6.10;2.20;;;;;;;-144.73;36.06;84946.27;110307;1278;22958;-60
2023/06/05 00:27:43;;;;;;;9.90;2.50;;;;;;;-144.73;36.11;84952.98;110317;1278;22104;-61
2023/06/05 00:30:30;;;;;;;4.50;1.90;;;;;;;-144.73;36.31;84943.50;110305;1278;22157;-61
2023/06/05 00:33:16;;;;;;;6.70;1.90;;;;;;;-144.73;36.09;84943.89;110307;1278;22120;-61
2023/06/05 00:36:02;;;;;;;3.90;1.70;;;;;;;-144.73;35.75;84957.73;110328;1278;22119;-61
2023/06/05 00:38:50;;;;;;;5.60;1.70;;;;;;;-144.73;35.64;84974.73;110296;1278;22127;-61
2023/06/05 00:41:41;;;;;;;6.20;2.00;;;;;;;-144.73;35.66;84968.40;110294;1278;22140;-61
2023/06/05 00:44:28;;;;;;;5.70;1.80;;;;;;;-144.73;35.79;84982.23;110311;1278;22142;-62
2023/06/05 00:47:14;;;;;;;3.40;1.40;;;;;;;-144.73;35.69;84993.70;110310;1278;22145;-62
2023/06/05 00:50:01;;;;;;;4.10;1.60;;;;;;;-144.73;35.72;84992.52;110308;1278;22145;-62
2023/06/05 00:52:50;;;;;;;3.50;1.50;;;;;;;-144.73;35.80;84996.48;110295;1278;22840;-62
2023/06/05 00:55:37;;;;;;;3.70;1.70;;;;;;;-144.73;35.80;85013.87;110300;1278;22097;-61
2023/06/05 00:58:24;;;;;;;4.70;1.40;;;;;;;-144.73;35.80;84998.85;110162;1278;22121;-62
2023/06/05 01:01:11;;;;;;;3.40;1.50;;;;;;;-144.73;35.67;85005.96;110331;1278;22108;-62
2023/06/05 01:03:57;;;;;;;4.60;1.30;;;;;;;-144.73;35.67;85019.40;110315;1278;22084;-62
2023/06/05 01:06:43;;;;;;;3.90;1.50;;;;;;;-144.73;35.77;85007.14;110315;1278;22810;-62
2023/06/05 01:09:30;;;;;;;9.80;2.10;;;;;;;-144.73;35.75;85011.89;110334;1278;22126;-61
2023/06/05 01:12:33;;;;;;;5.50;1.80;;;;;;;-144.73;35.65;85003.19;110306;1278;22106;-62
2023/06/05 01:15:28;;;;;;;3.30;1.50;;;;;;;-144.73;35.71;85009.52;110310;1278;22183;-62
2023/06/05 01:18:18;;;;;;;3.80;1.90;;;;;;;-144.73;35.91;85011.10;110299;1278;22126;-63
2023/06/05 01:21:11;;;;;;;4.60;1.70;;;;;;;-144.73;35.98;85009.92;110330;1278;22783;-64
2023/06/05 01:24:01;;;;;;;2.80;1.40;;;;;;;-144.73;36.02;85015.05;110299;1278;22847;-63
2023/06/05 01:27:18;;;;;;;6.00;2.00;;;;;;;-144.73;35.93;85013.86;110194;1278;22123;-63
2023/06/05 01:30:40;;;;;;;5.30;1.80;;;;;;;-144.73;35.82;84998.06;110163;1278;22116;-63
2023/06/05 01:33:34;;;;;;;5.30;1.80;;;;;;;-144.73;35.79;85006.35;109841;1285;22135;-61
2023/06/05 01:36:21;;;;;;;4.10;1.70;;;;;;;-144.73;35.58;85007.14;109838;1284;22150;-64
2023/06/05 01:39:09;;;;;;;5.00;1.60;;;;;;;-144.73;35.63;85003.59;109845;1284;22178;-65
2023/06/05 01:41:58;;;;;;;3.60;1.60;;;;;;;-144.73;35.48;84993.31;109863;1284;22139;-65
2023/06/05 01:44:45;;;;;;;5.00;1.80;;;;;;;-144.73;35.71;85005.16;109904;1284;22179;-64
2023/06/05 01:47:31;;;;;;;6.60;2.00;;;;;;;-144.73;35.77;85022.17;109879;1284;22135;-62
2023/06/05 01:50:18;;;;;;;9.50;2.10;;;;;;;-144.73;35.84;85016.64;109853;1284;22137;-65
2023/06/05 01:53:05;;;;;;;3.70;1.80;;;;;;;-144.73;36.00;85009.91;109887;1284;22173;-65
2023/06/05 01:55:57;;;;;;;4.20;1.70;;;;;;;-144.73;36.10;85008.73;109888;1284;22829;-62
2023/06/05 01:58:44;;;;;;;6.10;1.90;;;;;;;-144.73;36.01;85017.03;109832;1284;22163;-61
2023/06/05 02:01:31;;;;;;;5.30;1.30;;;;;;;-144.73;35.84;85034.82;109866;1284;22384;-61
2023/06/05 02:04:18;;;;;;;4.00;1.60;;;;;;;-144.73;35.96;85032.45;109881;1284;22874;-62
2023/06/05 02:07:05;;;;;;;4.40;1.60;;;;;;;-144.73;36.02;85026.52;109833;1284;22125;-62
2023/06/05 02:09:51;;;;;;;5.20;1.70;;;;;;;-144.73;36.17;85040.36;110262;1278;22991;-63
2023/06/05 02:12:38;;;;;;;4.30;1.90;;;;;;;-144.73;36.13;85037.20;110194;1278;22088;-62
2023/06/05 02:15:24;;;;;;;4.20;2.20;;;;;;;-144.73;35.91;85034.02;110260;1278;22871;-61
2023/06/05 02:18:10;;;;;;;4.70;1.60;;;;;;;-144.73;35.93;85026.13;110226;1278;22143;-62
2023/06/05 02:20:56;;;;;;;3.70;1.80;;;;;;;-144.73;35.85;85026.12;110325;1278;22745;-61
2023/06/05 02:23:43;;;;;;;3.80;1.50;;;;;;;-144.73;35.88;85024.15;110200;1278;22116;-62
2023/06/05 02:26:29;;;;;;;7.20;1.90;;;;;;;-144.73;35.62;85025.34;110297;1278;22104;-62
2023/06/05 02:29:15;;;;;;;4.80;1.70;;;;;;;-144.73;35.57;85017.83;110310;1278;22085;-62
2023/06/05 02:32:01;;;;;;;3.80;1.60;;;;;;;-144.73;35.56;85011.89;110330;1278;22126;-61
2023/06/05 02:34:48;;;;;;;4.50;2.00;;;;;;;-144.73;35.77;84995.29;110207;1278;22112;-63
2023/06/05 02:37:36;;;;;;;3.50;1.80;;;;;;;-144.73;36.03;84990.14;110190;1278;22853;-61
2023/06/05 02:40:23;;;;;;;5.20;1.60;;;;;;;-144.73;36.20;85002.01;110194;1278;22102;-62
2023/06/05 02:43:11;;;;;;;5.00;2.20;;;;;;;-144.73;36.18;85002.41;110320;1278;22117;-61
2023/06/05 02:45:57;;;;;;;4.20;1.90;;;;;;;-144.73;36.33;84990.94;110177;1278;22237;-61
2023/06/05 02:48:44;;;;;;;5.10;2.60;;;;;;;-144.73;36.33;84998.05;110198;1278;22806;-62
2023/06/05 02:51:30;;;;;;;4.10;1.90;;;;;;;-144.73;36.35;84993.31;110223;1277;22094;-62
2023/06/05 02:54:17;;;;;;;6.70;2.40;;;;;;;-144.73;36.39;84997.27;110205;1278;22095;-62
2023/06/05 02:57:06;;;;;;;5.40;1.90;;;;;;;-144.73;36.39;84992.52;110183;1278;22282;-62
2023/06/05 02:59:52;;;;;;;3.60;1.90;;;;;;;-144.73;36.43;84986.98;110207;1278;22098;-62
2023/06/05 03:02:38;;;;;;;4.80;1.80;;;;;;;-144.73;36.55;84994.50;110230;1278;22943;-62
2023/06/05 03:05:24;;;;;;;6.90;1.70;;;;;;;-144.73;36.48;85003.20;110288;1277;22807;-62
2023/06/05 03:08:13;;;;;;;4.10;1.70;;;;;;;-144.73;36.80;84994.89;110558;1260;22130;-63
2023/06/05 03:11:01;;;;;;;4.30;1.90;;;;;;;-144.73;36.72;84999.23;110216;1278;22102;-63
2023/06/05 03:13:48;;;;;;;4.40;2.00;;;;;;;-144.73;36.83;84987.77;110190;1278;22127;-62
2023/06/05 03:16:41;;;;;;;5.70;1.50;;;;;;;-144.73;36.74;84991.73;110614;1260;22314;-63
2023/06/05 03:19:28;;;;;;;4.30;1.70;;;;;;;-144.73;36.65;84984.61;110307;1278;22224;-62
2023/06/05 03:22:17;;;;;;;6.90;1.80;;;;;;;-144.73;36.93;84986.20;110217;1278;22107;-63
2023/06/05 03:25:03;;;;;;;3.20;1.80;;;;;;;-144.73;37.05;84987.39;110292;1277;22122;-62
2023/06/05 03:27:49;;;;;;;4.40;2.00;;;;;;;-144.73;36.97;84985.80;110383;1277;22199;-61
2023/06/05 03:30:36;;;;;;;9.00;2.10;;;;;;;-144.73;37.43;84972.76;110405;1277;22131;-61
2023/06/05 03:33:23;;;;;;;7.30;2.20;;;;;;;-144.73;37.34;84979.08;110193;1278;22126;-62
2023/06/05 03:36:22;;;;;;;5.80;1.70;;;;;;;-144.73;37.57;84982.64;110232;1277;22800;-62
2023/06/05 03:39:09;;;;;;;4.80;2.00;;;;;;;-144.73;37.66;84964.05;110217;1278;22103;-62
2023/06/05 03:41:56;;;;;;;4.50;1.70;;;;;;;-144.73;37.53;84958.13;110200;1278;22170;-61
2023/06/05 03:44:44;;;;;;;7.80;2.00;;;;;;;-144.73;37.57;84958.92;110181;1270;22330;-61
2023/06/05 03:47:34;;;;;;;5.50;1.90;;;;;;;-144.73;37.59;84935.98;110251;1278;22134;-61
2023/06/05 03:50:20;;;;;;;7.10;1.80;;;;;;;-144.73;37.61;84934.41;110419;1270;22211;-62
2023/06/05 03:53:08;;;;;;;4.40;2.00;;;;;;;-144.73;37.48;84917.80;110340;1259;22349;-61
2023/06/05 03:55:56;;;;;;;4.90;2.10;;;;;;;-144.73;37.66;84890.53;110188;1278;22121;-62
2023/06/05 03:58:45;;;;;;;4.10;1.70;;;;;;;-144.73;37.85;84890.14;110179;1278;22140;-62
2023/06/05 04:01:34;;;;;;;7.30;2.30;;;;;;;-144.73;37.85;84866.41;110176;1278;22076;-63
2023/06/05 04:04:20;;;;;;;5.00;2.10;;;;;;;-144.73;37.86;84856.52;110281;1278;22112;-62
2023/06/05 04:07:06;;;;;;;6.70;2.10;;;;;;;-144.73;37.99;84842.30;110241;1278;22147;-62
2023/06/05 04:09:53;;;;;;;8.70;2.00;;;;;;;-144.73;38.06;84845.46;110196;1278;22810;-62
2023/06/05 04:12:39;;;;;;;4.30;1.90;;;;;;;-144.73;38.29;84823.33;110177;1278;22079;-62
2023/06/05 04:15:26;;;;;;;7.30;3.40;;;;;;;-144.73;37.86;84813.04;110189;1278;22378;-62
2023/06/05 04:18:12;;;;;;;5.20;2.30;;;;;;;-144.73;38.10;84801.19;110185;1278;22110;-62
2023/06/05 04:20:59;;;;;;;5.60;2.40;;;;;;;-144.73;38.00;84784.58;110195;1277;22113;-62
2023/06/05 04:23:45;;;;;;;5.50;1.80;;;;;;;-144.73;37.90;84767.98;110184;1278;22106;-62
2023/06/05 04:26:36;;;;;;;6.70;1.90;;;;;;;-144.73;37.81;84748.21;110174;1278;22112;-62
2023/06/05 04:29:23;;;;;;;9.60;2.30;;;;;;;-144.73;37.76;84745.05;110280;1278;22129;-62
2023/06/05 04:32:09;;;;;;;5.90;2.30;;;;;;;-144.73;37.66;84720.14;110279;1278;22127;-62
2023/06/05 04:34:55;;;;;;;4.70;2.10;;;;;;;-144.73;37.70;84707.10;110298;1278;22107;-62
2023/06/05 04:37:41;;;;;;;5.30;2.20;;;;;;;-144.73;37.50;84684.56;110285;1278;22977;-62
2023/06/05 04:40:27;;;;;;;7.20;2.40;;;;;;;-144.73;37.56;84682.60;110296;1278;22194;-63
2023/06/05 04:43:14;;;;;;;6.20;1.80;;;;;;;-144.73;37.51;84665.98;110191;1278;22122;-62
2023/06/05 04:46:00;;;;;;;3.90;1.80;;;;;;;-144.73;37.22;84650.17;110273;1278;22100;-62
2023/06/05 04:48:46;;;;;;;4.20;1.60;;;;;;;-144.73;36.96;84636.73;110481;1261;22331;-65
2023/06/05 04:51:33;;;;;;;4.00;1.50;;;;;;;-144.73;36.92;84608.66;110161;1278;22099;-62
2023/06/05 04:54:19;;;;;;;5.00;1.30;;;;;;;-144.73;36.81;84597.60;110270;1275;22827;-68
2023/06/05 04:57:05;;;;;;;3.30;1.60;;;;;;;-144.73;36.74;84609.86;109833;1265;22331;-59
2023/06/05 04:59:52;;;;;;;3.70;1.50;;;;;;;-144.73;36.73;84583.77;110144;1275;22303;-61
2023/06/05 05:02:39;;;;;;;5.00;1.60;;;;;;;-144.73;36.69;84566.77;110297;1271;23031;-62
2023/06/05 05:05:25;;;;;;;3.70;1.60;;;;;;;-144.73;36.75;84558.46;110185;1261;22297;-62
2023/06/05 05:08:12;;;;;;;4.40;1.30;;;;;;;-144.73;36.65;84537.91;110112;1271;22981;-61
2023/06/05 05:10:58;;;;;;;4.70;1.40;;;;;;;-144.73;36.51;84512.21;110093;1265;22168;-62
2023/06/05 05:13:45;;;;;;;4.80;1.50;;;;;;;-144.73;36.42;84510.23;110204;1263;22798;-62
2023/06/05 05:16:32;;;;;;;4.00;1.60;;;;;;;-144.73;36.10;84492.05;110079;1270;22330;-60
2023/06/05 05:19:23;;;;;;;;;;;;;;;-144.73;35.88;84480.20;110188;1272;22382;-63
2023/06/05 05:22:09;;;;;;;3.60;1.40;;;;;;;-144.73;35.93;84483.36;110125;1270;22329;-64
2023/06/05 05:24:56;;;;;;;3.80;1.50;;;;;;;-144.73;35.96;84465.98;110245;1272;22317;-62
2023/06/05 05:27:42;;;;;;;4.50;1.60;;;;;;;-144.73;36.14;84431.58;110209;1273;22299;-59
2023/06/05 05:30:30;;;;;;;3.60;1.50;;;;;;;-144.73;36.62;84418.93;110139;1275;22916;-61
2023/06/05 05:33:17;;;;;;;4.20;1.30;;;;;;;-144.73;36.13;84374.27;110173;1262;22113;-60
2023/06/05 05:36:04;;;;;;;4.20;1.70;;;;;;;-144.73;35.63;84367.94;110166;1270;22392;-65
2023/06/05 05:38:50;;;;;;;4.30;1.90;;;;;;;-144.73;35.47;84325.25;110187;1268;22320;-63
2023/06/05 05:41:37;;;;;;;5.80;1.50;;;;;;;-144.73;35.23;84297.18;110168;1273;22312;-63
2023/06/05 05:44:23;;;;;;;6.50;1.80;;;;;;;-144.73;35.05;84265.95;110159;1271;22249;-65
2023/06/05 05:47:10;;;;;;;3.40;1.70;;;;;;;-144.73;34.67;84224.46;110199;1265;22856;-61
2023/06/05 05:49:56;;;;;;;3.00;1.40;;;;;;;-144.73;33.62;83878.63;110160;1275;22815;-63
2023/06/05 05:52:47;;;;;;;3.80;1.30;;;;;;;-144.73;32.27;83383.04;110139;1262;22198;-65
2023/06/05 05:55:33;;;;;;;5.90;1.20;;;;;;;-144.73;29.99;82981.16;110320;1270;22314;-65
2023/06/05 05:58:20;;;;;;;3.40;1.00;;;;;;;-144.73;28.08;82635.03;110280;1266;22330;-61
2023/06/05 06:01:06;;;;;;;2.40;1.00;;;;;;;-144.73;26.92;82238.77;110284;1274;22158;-66
2023/06/05 06:03:52;;;;;;;4.00;1.20;;;;;;;-144.73;25.27;81934.98;110179;1271;22229;-64
2023/06/05 06:06:39;;;;;;;4.60;1.30;;;;;;;-144.73;24.85;81767.48;110165;1270;22106;-63
2023/06/05 06:09:26;;;;;;;3.00;1.00;;;;;;;-144.73;23.93;81564.85;110174;1264;22208;-67
2023/06/05 06:12:13;;;;;;;1.80;0.70;;;;;;;-144.73;23.37;81394.21;110139;1277;22909;-65
2023/06/05 06:14:59;;;;;;;3.20;1.10;;;;;;;-144.73;22.77;81193.95;110130;1271;22326;-65
2023/06/05 06:17:45;;;;;;;3.90;0.80;;;;;;;-144.73;22.31;80951.85;110197;1269;22916;-65
2023/06/05 06:20:33;;;;;;;3.70;1.00;;;;;;;-144.73;21.78;80774.14;110178;1266;22302;-62
2023/06/05 06:23:19;;;;;;;3.90;1.20;;;;;;;-144.73;21.46;80713.71;110282;1266;22130;-65
2023/06/05 06:26:06;;;;;;;2.90;1.10;;;;;;;-144.73;21.22;80687.65;110314;1269;22226;-67
2023/06/05 06:28:54;;;;;;;3.10;1.10;;;;;;;-144.73;21.01;80725.56;110188;1268;22347;-64
2023/06/05 06:31:42;;;;;;;2.50;0.90;;;;;;;-144.73;21.16;80700.28;110167;1257;22353;-64
2023/06/05 06:34:29;;;;;;;3.20;0.70;;;;;;;-144.73;20.88;80742.15;110151;1262;23355;-65
2023/06/05 06:37:15;;;;;;;2.80;0.90;;;;;;;-144.73;21.01;80710.55;110148;1272;23144;-64
2023/06/05 06:40:06;;;;;;;3.10;1.00;;;;;;;-144.73;20.74;80582.60;110186;1273;22308;-63
2023/06/05 06:42:52;;;;;;;;;;;;;;;-144.73;20.62;80395.83;110322;1266;22981;-62
2023/06/05 06:45:46;;;;;;;6.00;1.10;;;;;;;-144.73;20.22;80182.58;110203;1275;22320;-66
2023/06/05 06:51:41;;;;;;;1.10;0.70;;;;;;;-144.73;19.81;79934.63;104735;1305;545039;-63
2023/06/05 06:54:28;;;;;;;4.70;1.00;;;;;;;-144.73;19.93;80032.55;107499;1279;22670;-63
2023/06/05 06:57:14;;;;;;;4.60;0.90;;;;;;;-144.73;19.98;80145.86;107151;1278;22947;-61
2023/06/05 07:00:00;;;;;;;2.60;0.90;;;;;;;-144.73;20.11;80011.61;106920;1275;22691;-63
2023/06/05 07:02:47;;;;;;;2.40;0.80;;;;;;;-144.73;19.57;79694.96;106869;1266;22522;-61
2023/06/05 07:05:34;;;;;;;2.00;0.60;;;;;;;-144.73;19.42;79568.63;107278;1266;179957;-63
2023/06/05 07:08:23;;;;;;;1.60;0.70;;;;;;;-144.73;19.08;79508.23;107547;1268;21741;-63
2023/06/05 07:11:10;;;;;;;1.00;0.70;;;;;;;-144.73;19.31;79663.38;107083;1271;24246;-66
2023/06/05 07:13:56;;;;;;;1.90;0.70;;;;;;;-144.73;19.24;79666.54;107140;1272;22546;-65
2023/06/05 07:16:42;;;;;;;1.70;0.80;;;;;;;-144.73;19.08;79524.02;107272;1272;22558;-64
